createdAt,value
2022-09-03T00:00:19.590Z,98474.94
2022-09-03T00:03:13.365Z,98486.94
2022-09-03T00:06:07.883Z,98603.75
2022-09-03T00:09:00.139Z,98605.22
2022-09-03T00:12:04.588Z,98649.22
2022-09-03T00:15:04.753Z,98623.38
2022-09-03T00:18:02.937Z,98612.66
2022-09-03T00:20:58.869Z,98452.25
2022-09-03T00:23:48.575Z,98459.44
2022-09-03T00:26:35.717Z,98613.56
2022-09-03T00:29:35.519Z,98631.59
2022-09-03T00:33:19.957Z,98618.97
2022-09-03T00:36:14.909Z,98585.56
2022-09-03T00:39:00.127Z,98520.44
2022-09-03T00:42:13.300Z,98605.59
2022-09-03T00:45:07.856Z,98611.91
2022-09-03T00:48:12.027Z,98631.31
2022-09-03T00:51:35.271Z,98622.06
2022-09-03T00:54:33.157Z,98623.84
2022-09-03T00:57:38.894Z,98626.34
2022-09-03T01:00:24.437Z,98499.28
2022-09-03T01:03:15.617Z,98429.88
2022-09-03T01:06:07.287Z,98596.16
2022-09-03T01:09:17.041Z,98594.44
2022-09-03T01:12:02.435Z,98612.31
2022-09-03T01:15:00.320Z,98591.22
2022-09-03T01:18:13.605Z,98586.81
2022-09-03T01:21:09.094Z,98410.72
2022-09-03T01:24:13.608Z,98605.47
2022-09-03T01:27:11.120Z,98442.03
2022-09-03T01:30:06.166Z,98387.72
2022-09-03T01:33:06.962Z,98395.03
2022-09-03T01:36:03.186Z,98447.72
2022-09-03T01:39:13.585Z,98583.59
2022-09-03T01:42:20.174Z,98555.50
2022-09-03T01:45:31.502Z,98575.13
2022-09-03T01:48:59.275Z,98579.66
2022-09-03T01:51:45.282Z,98578.91
2022-09-03T01:55:09.293Z,98452.41
2022-09-03T01:58:34.336Z,98568.81
2022-09-03T02:01:29.484Z,98402.66
2022-09-03T02:04:20.518Z,98523.84
2022-09-03T02:07:06.248Z,98421.84
2022-09-03T02:09:51.574Z,98538.50
2022-09-03T02:12:43.108Z,98423.72
2022-09-03T02:15:31.167Z,98506.34
2022-09-03T02:18:21.035Z,98551.84
2022-09-03T02:21:07.672Z,98564.28
2022-09-03T02:23:53.586Z,98372.66
2022-09-03T02:26:39.114Z,98553.28
2022-09-03T02:29:25.252Z,98438.38
2022-09-03T02:32:15.005Z,98556.69
2022-09-03T02:35:00.582Z,98506.91
2022-09-03T02:37:45.998Z,98566.94
2022-09-03T02:40:31.329Z,98525.94
2022-09-03T02:43:52.716Z,98400.31
2022-09-03T02:46:51.978Z,98419.19
2022-09-03T02:49:37.369Z,98544.72
2022-09-03T02:52:22.954Z,98572.53
2022-09-03T02:55:08.935Z,98565.50
2022-09-03T02:57:54.263Z,98530.34
2022-09-03T03:00:39.573Z,98413.06
2022-09-03T03:03:26.435Z,98534.75
2022-09-03T03:06:13.981Z,98581.47
2022-09-03T03:09:00.120Z,98405.88
2022-09-03T03:11:46.839Z,98590.56
2022-09-03T03:14:32.229Z,98573.09
2022-09-03T03:17:17.709Z,98416.41
2022-09-03T03:20:03.687Z,98417.16
2022-09-03T03:22:49.084Z,98543.84
2022-09-03T03:25:37.011Z,98457.69
2022-09-03T03:28:22.579Z,98415.41
2022-09-03T03:31:13.355Z,98433.09
2022-09-03T03:34:02.034Z,98574.25
2022-09-03T03:36:47.354Z,98408.25
2022-09-03T03:39:34.546Z,98460.31
2022-09-03T03:42:19.873Z,98580.13
2022-09-03T03:45:06.733Z,98440.28
2022-09-03T03:47:52.882Z,98572.19
2022-09-03T03:50:38.508Z,98550.69
2022-09-03T03:53:23.807Z,98579.41
2022-09-03T03:56:12.347Z,98583.59
2022-09-03T03:58:59.515Z,98582.13
2022-09-03T04:01:45.342Z,98579.78
2022-09-03T04:04:31.232Z,98450.94
2022-09-03T04:07:16.560Z,98581.97
2022-09-03T04:10:02.009Z,98449.66
2022-09-03T04:12:47.355Z,98620.53
2022-09-03T04:15:32.794Z,98602.38
2022-09-03T04:18:18.262Z,98442.19
2022-09-03T04:21:08.202Z,98618.94
2022-09-03T04:23:54.966Z,98467.63
2022-09-03T04:26:40.866Z,98610.44
2022-09-03T04:29:26.556Z,98480.22
2022-09-03T04:32:30.433Z,98609.25
2022-09-03T04:35:16.154Z,98552.63
2022-09-03T04:38:01.941Z,98596.63
2022-09-03T04:40:53.109Z,98632.56
2022-09-03T04:43:39.051Z,98545.44
2022-09-03T04:46:33.696Z,98468.94
2022-09-03T04:49:20.752Z,98605.00
2022-09-03T04:52:06.296Z,98602.22
2022-09-03T04:54:52.971Z,98596.63
2022-09-03T04:57:39.388Z,98587.53
2022-09-03T05:00:26.177Z,98596.50
2022-09-03T05:03:12.746Z,98604.72
2022-09-03T05:05:59.603Z,98611.78
2022-09-03T05:08:49.101Z,98604.13
2022-09-03T05:11:36.511Z,98443.63
2022-09-03T05:14:23.740Z,98602.69
2022-09-03T05:17:09.772Z,98612.78
2022-09-03T05:19:55.606Z,98632.44
2022-09-03T05:22:41.273Z,98607.22
2022-09-03T05:25:28.546Z,98616.16
2022-09-03T05:28:14.731Z,98611.78
2022-09-03T05:31:04.918Z,98616.63
2022-09-03T05:33:53.456Z,98622.19
2022-09-03T05:36:40.371Z,98596.09
2022-09-03T05:39:27.235Z,98615.88
2022-09-03T05:42:15.069Z,98617.19
2022-09-03T05:45:00.895Z,98475.44
2022-09-03T05:47:46.338Z,98610.88
2022-09-03T05:50:32.110Z,98613.94
2022-09-03T05:53:18.437Z,98553.91
2022-09-03T05:56:07.826Z,98484.63
2022-09-03T05:58:56.119Z,98485.81
2022-09-03T06:01:50.955Z,98597.09
2022-09-03T06:04:38.867Z,98601.78
2022-09-03T06:07:25.515Z,98563.72
2022-09-03T06:10:12.818Z,98447.91
2022-09-03T06:13:04.195Z,98620.66
2022-09-03T06:15:49.727Z,98621.53
2022-09-03T06:18:35.729Z,98621.69
2022-09-03T06:21:21.795Z,98583.31
2022-09-03T06:24:07.764Z,98439.13
2022-09-03T06:26:53.627Z,98452.28
2022-09-03T06:29:39.938Z,98596.97
2022-09-03T06:32:25.440Z,98622.56
2022-09-03T06:35:11.326Z,98622.56
2022-09-03T06:37:57.428Z,98592.41
2022-09-03T06:40:44.169Z,98628.31
2022-09-03T06:43:31.953Z,98622.84
2022-09-03T06:46:20.524Z,98490.94
2022-09-03T06:49:06.506Z,98609.69
2022-09-03T06:51:52.283Z,98547.66
2022-09-03T06:54:39.645Z,98464.41
2022-09-03T06:57:25.405Z,98638.41
2022-09-03T07:00:12.367Z,98626.25
2022-09-03T07:03:00.344Z,98646.19
2022-09-03T07:05:47.758Z,98640.19
2022-09-03T07:08:34.466Z,98640.63
2022-09-03T07:11:23.526Z,98650.28
2022-09-03T07:14:09.688Z,98642.50
2022-09-03T07:16:56.912Z,98643.97
2022-09-03T07:19:42.471Z,98556.53
2022-09-03T07:22:31.487Z,98651.03
2022-09-03T07:25:18.638Z,98592.28
2022-09-03T07:28:07.090Z,98653.22
2022-09-03T07:30:54.601Z,98636.56
2022-09-03T07:33:42.110Z,98659.50
2022-09-03T07:36:35.372Z,98665.09
2022-09-03T07:39:22.921Z,98653.94
2022-09-03T07:42:10.958Z,98617.34
2022-09-03T07:44:56.948Z,98652.19
2022-09-03T07:47:48.705Z,98654.97
2022-09-03T07:50:39.348Z,98662.03
2022-09-03T07:53:25.365Z,98524.34
2022-09-03T07:56:12.931Z,98666.56
2022-09-03T07:58:59.698Z,98665.25
2022-09-03T08:01:45.218Z,98666.28
2022-09-03T08:04:31.375Z,98530.50
2022-09-03T08:07:17.396Z,98680.34
2022-09-03T08:10:05.113Z,98530.63
2022-09-03T08:12:51.087Z,98650.72
2022-09-03T08:15:37.579Z,98657.03
2022-09-03T08:18:23.303Z,98495.78
2022-09-03T08:21:16.258Z,98618.66
2022-09-03T08:24:05.879Z,98638.19
2022-09-03T08:26:52.668Z,98664.66
2022-09-03T08:29:38.777Z,98621.16
2022-09-03T08:32:24.542Z,98667.59
2022-09-03T08:35:10.992Z,98677.56
2022-09-03T08:37:57.153Z,98652.53
2022-09-03T08:40:44.827Z,98668.66
2022-09-03T08:43:31.514Z,98673.19
2022-09-03T08:46:17.450Z,98291.97
2022-09-03T08:49:03.189Z,98674.50
2022-09-03T08:51:51.862Z,98680.06
2022-09-03T08:54:38.153Z,98639.34
2022-09-03T08:57:25.660Z,98528.88
2022-09-03T09:00:12.782Z,98703.84
2022-09-03T09:03:21.769Z,98700.91
2022-09-03T09:06:26.326Z,98692.69
2022-09-03T09:09:27.951Z,98716.31
2022-09-03T09:12:41.314Z,98685.66
2022-09-03T09:15:52.559Z,98701.66
2022-09-03T09:18:56.804Z,98648.75
2022-09-03T09:22:01.297Z,98652.28
2022-09-03T09:24:49.203Z,98645.66
2022-09-03T09:27:35.133Z,98691.25
2022-09-03T09:30:21.304Z,98701.09
2022-09-03T09:33:08.254Z,98706.06
2022-09-03T09:35:54.492Z,98712.25
2022-09-03T09:38:41.538Z,98704.47
2022-09-03T09:41:29.838Z,98699.34
2022-09-03T09:44:21.089Z,98523.28
2022-09-03T09:47:12.654Z,98710.75
2022-09-03T09:50:00.626Z,98634.84
2022-09-03T09:53:01.056Z,98712.22
2022-09-03T09:55:55.963Z,98715.19
2022-09-03T09:58:41.834Z,98723.81
2022-09-03T10:01:30.503Z,98705.19
2022-09-03T10:04:27.782Z,98699.34
2022-09-03T10:07:33.754Z,98746.84
2022-09-03T10:10:23.509Z,98723.94
2022-09-03T10:13:25.070Z,98560.22
2022-09-03T10:16:26.051Z,98674.25
2022-09-03T10:19:20.969Z,98721.47
2022-09-03T10:22:18.692Z,98732.34
2022-09-03T10:25:05.159Z,98701.69
2022-09-03T10:27:55.703Z,98734.38
2022-09-03T10:31:20.382Z,98728.97
2022-09-03T10:34:41.610Z,98729.41
2022-09-03T10:37:51.329Z,98727.63
2022-09-03T10:40:42.766Z,98729.84
2022-09-03T10:43:52.025Z,98733.22
2022-09-03T10:46:55.307Z,98725.41
2022-09-03T10:50:01.818Z,98559.63
2022-09-03T10:53:31.504Z,98718.22
2022-09-03T10:56:25.566Z,98588.38
2022-09-03T10:59:31.242Z,98714.25
2022-09-03T11:02:32.585Z,98726.75
2022-09-03T11:05:31.949Z,98720.84
2022-09-03T11:08:25.136Z,98724.22
2022-09-03T11:11:39.942Z,98712.91
2022-09-03T11:14:45.274Z,98723.03
2022-09-03T11:17:43.150Z,98714.66
2022-09-03T11:20:30.558Z,98683.63
2022-09-03T11:23:17.297Z,98719.09
2022-09-03T11:26:12.885Z,98704.72
2022-09-03T11:29:01.177Z,98719.38
2022-09-03T11:32:07.917Z,98702.34
2022-09-03T11:34:55.464Z,98717.16
2022-09-03T11:38:03.152Z,98719.69
2022-09-03T11:41:00.871Z,98721.44
2022-09-03T11:43:47.325Z,98704.84
2022-09-03T11:46:35.248Z,98698.53
2022-09-03T11:49:33.454Z,98706.16
2022-09-03T11:52:40.662Z,98503.09
2022-09-03T11:55:32.627Z,98709.25
2022-09-03T11:58:30.028Z,98707.34
2022-09-03T12:01:22.953Z,98698.81
2022-09-03T12:04:15.686Z,98694.59
2022-09-03T12:07:32.756Z,98697.50
2022-09-03T12:10:46.504Z,98698.81
2022-09-03T12:13:58.508Z,98615.88
2022-09-03T12:17:05.635Z,98689.59
2022-09-03T12:20:00.169Z,98683.44
2022-09-03T12:22:46.710Z,98682.09
2022-09-03T12:25:34.432Z,98670.34
2022-09-03T12:28:25.618Z,98554.66
2022-09-03T12:31:24.768Z,98677.84
2022-09-03T12:34:13.958Z,98674.91
2022-09-03T12:37:01.594Z,98685.03
2022-09-03T12:40:11.872Z,98615.56
2022-09-03T12:46:33.643Z,98667.13
2022-09-03T12:49:30.490Z,98668.69
2022-09-03T12:52:29.714Z,98515.25
2022-09-03T12:55:45.866Z,98671.97
2022-09-03T12:58:45.475Z,98671.50
2022-09-03T13:01:47.350Z,98678.38
2022-09-03T13:04:36.829Z,98672.53
2022-09-03T13:07:35.000Z,98544.69
2022-09-03T13:10:32.726Z,98675.34
2022-09-03T13:13:28.183Z,98676.81
2022-09-03T13:16:43.107Z,98674.13
2022-09-03T13:19:38.213Z,98700.59
2022-09-03T13:22:53.235Z,98660.97
2022-09-03T13:25:49.151Z,98669.75
2022-09-03T13:28:39.672Z,98679.44
2022-09-03T13:31:38.820Z,98619.22
2022-09-03T13:34:33.731Z,98649.09
2022-09-03T13:37:39.630Z,98499.16
2022-09-03T13:40:31.507Z,98697.81
2022-09-03T13:44:07.806Z,98665.06
2022-09-03T13:47:08.465Z,98666.41
2022-09-03T13:50:23.502Z,98496.94
2022-09-03T13:53:30.330Z,98672.84
2022-09-03T13:56:20.177Z,98625.31
2022-09-03T13:59:35.095Z,98665.34
2022-09-03T14:02:43.171Z,98679.28
2022-09-03T14:05:57.904Z,98673.13
2022-09-03T14:08:59.809Z,98679.44
2022-09-03T14:12:04.144Z,98672.41
2022-09-03T14:15:09.510Z,98540.56
2022-09-03T14:18:11.185Z,98624.03
2022-09-03T14:21:03.234Z,98665.22
2022-09-03T14:24:06.281Z,98659.75
2022-09-03T14:27:02.523Z,98648.38
2022-09-03T14:29:58.295Z,98674.75
2022-09-03T14:33:13.930Z,98651.41
2022-09-03T14:36:23.124Z,98636.34
2022-09-03T14:39:46.096Z,98676.38
2022-09-03T14:42:51.901Z,98511.16
2022-09-03T14:45:45.618Z,98506.16
2022-09-03T14:49:09.579Z,98662.44
2022-09-03T14:52:18.313Z,98672.28
2022-09-03T14:55:20.248Z,98674.31
2022-09-03T14:58:23.596Z,98681.97
2022-09-03T15:01:19.684Z,98679.16
2022-09-03T15:04:24.667Z,98690.44
2022-09-03T15:07:41.730Z,98685.03
2022-09-03T15:10:55.914Z,98695.00
2022-09-03T15:14:11.217Z,98699.84
2022-09-03T15:17:17.800Z,98700.44
2022-09-03T15:20:24.595Z,98689.72
2022-09-03T15:23:52.140Z,98702.06
2022-09-03T15:27:05.647Z,98691.50
2022-09-03T15:30:21.637Z,98684.88
2022-09-03T15:33:18.238Z,98689.28
2022-09-03T15:36:27.077Z,98656.03
2022-09-03T15:39:27.639Z,98517.16
2022-09-03T15:42:29.078Z,98686.34
2022-09-03T15:45:36.945Z,98714.81
2022-09-03T15:48:48.969Z,98689.72
2022-09-03T15:51:55.324Z,98699.56
2022-09-03T15:54:53.249Z,98696.78
2022-09-03T15:57:51.575Z,98563.44
2022-09-03T16:00:55.512Z,98690.00
2022-09-03T16:03:57.262Z,98690.75
2022-09-03T16:07:01.406Z,98690.75
2022-09-03T16:10:25.964Z,98685.34
2022-09-03T16:13:47.927Z,98691.78
2022-09-03T16:17:01.277Z,98689.59
2022-09-03T16:20:06.930Z,98695.03
2022-09-03T16:23:06.427Z,98697.06
2022-09-03T16:26:16.524Z,98694.44
2022-09-03T16:29:16.242Z,98689.72
2022-09-03T16:32:20.612Z,98667.16
2022-09-03T16:35:17.667Z,98705.88
2022-09-03T16:38:46.838Z,98675.63
2022-09-03T16:42:02.463Z,98701.28
2022-09-03T16:45:51.556Z,98701.81
2022-09-03T16:49:17.170Z,98712.69
2022-09-03T16:52:18.021Z,98710.03
2022-09-03T16:55:22.358Z,98712.22
2022-09-03T16:58:22.199Z,98717.06
2022-09-03T17:01:21.313Z,98728.22
2022-09-03T17:04:25.705Z,98718.06
2022-09-03T17:07:29.716Z,98716.75
2022-09-03T17:10:39.356Z,98716.91
2022-09-03T17:13:43.743Z,98713.50
2022-09-03T17:16:57.704Z,98710.00
2022-09-03T17:19:58.197Z,98721.00
2022-09-03T17:23:10.133Z,98721.00
2022-09-03T17:26:31.458Z,98730.72
2022-09-03T17:29:38.306Z,98729.25
2022-09-03T17:32:57.920Z,98729.25
2022-09-03T17:36:08.264Z,98732.19
2022-09-03T17:39:23.871Z,98737.28
2022-09-03T17:42:26.525Z,98740.97
2022-09-03T17:45:21.974Z,98743.91
2022-09-03T17:48:23.424Z,98732.59
2022-09-03T17:51:27.743Z,98746.97
2022-09-03T17:54:26.324Z,98737.13
2022-09-03T17:57:30.864Z,98682.19
2022-09-03T18:00:30.938Z,98686.59
2022-09-03T18:03:27.991Z,98574.81
2022-09-03T18:06:42.953Z,98751.97
2022-09-03T18:09:40.183Z,98749.75
2022-09-03T18:13:03.592Z,98745.34
2022-09-03T18:15:56.035Z,98766.09
2022-09-03T18:18:52.573Z,98741.31
2022-09-03T18:21:57.789Z,98745.97
2022-09-03T18:25:17.942Z,98745.97
2022-09-03T18:28:28.701Z,98657.34
2022-09-03T18:31:34.804Z,98750.25
2022-09-03T18:34:49.330Z,98463.56
2022-09-03T18:37:53.980Z,98744.25
2022-09-03T18:41:18.033Z,98746.63
2022-09-03T18:44:28.804Z,98751.03
2022-09-03T18:48:17.911Z,98754.56
2022-09-03T18:51:40.398Z,98767.47
2022-09-03T18:55:17.920Z,98749.25
2022-09-03T18:58:57.418Z,98752.03
2022-09-03T19:02:05.205Z,98761.16
2022-09-03T19:05:18.656Z,98756.47
2022-09-03T19:08:26.189Z,98761.44
2022-09-03T19:11:55.663Z,98760.84
2022-09-03T19:15:18.249Z,98762.91
2022-09-03T19:18:41.382Z,98765.09
2022-09-03T19:21:59.918Z,98758.78
2022-09-03T19:25:04.494Z,98696.50
2022-09-03T19:28:33.971Z,98761.34
2022-09-03T19:31:41.741Z,98794.09
2022-09-03T19:35:05.610Z,98610.06
2022-09-03T19:38:46.303Z,98758.56
2022-09-03T19:41:59.096Z,98622.81
2022-09-03T19:45:21.909Z,98709.75
2022-09-03T19:48:45.451Z,98771.78
2022-09-03T19:52:05.637Z,98651.69
2022-09-03T19:55:17.020Z,98779.72
2022-09-03T19:58:42.065Z,98783.97
2022-09-03T20:01:53.017Z,98778.69
2022-09-03T20:05:03.998Z,98646.84
2022-09-03T20:08:13.274Z,98744.22
2022-09-03T20:11:00.703Z,98653.75
2022-09-03T20:14:05.217Z,98766.50
2022-09-03T20:17:20.019Z,98804.53
2022-09-03T20:20:54.520Z,98791.59
2022-09-03T20:24:24.836Z,98798.81
2022-09-03T20:27:32.124Z,98820.66
2022-09-03T20:30:20.506Z,98804.06
2022-09-03T20:33:15.016Z,98830.66
2022-09-03T20:36:21.281Z,98769.00
2022-09-03T20:39:22.675Z,98807.44
2022-09-03T20:42:40.710Z,98808.03
2022-09-03T20:45:51.785Z,98788.66
2022-09-03T20:48:40.376Z,98815.09
2022-09-03T20:51:36.326Z,98807.59
2022-09-03T20:54:47.620Z,98808.94
2022-09-03T20:58:01.078Z,98819.50
2022-09-03T21:01:04.695Z,98797.78
2022-09-03T21:04:38.424Z,98820.81
2022-09-03T21:07:43.173Z,98812.44
2022-09-03T21:10:58.428Z,98821.84
2022-09-03T21:13:53.582Z,98823.59
2022-09-03T21:17:18.772Z,98832.56
2022-09-03T21:20:27.876Z,98833.59
2022-09-03T21:23:31.551Z,98836.38
2022-09-03T21:26:23.519Z,98834.31
2022-09-03T21:29:12.515Z,98830.50
2022-09-03T21:32:22.704Z,98839.72
2022-09-03T21:35:30.541Z,98666.13
2022-09-03T21:38:26.987Z,98823.91
2022-09-03T21:41:21.578Z,98842.81
2022-09-03T21:44:13.983Z,98616.66
2022-09-03T21:47:13.558Z,98793.66
2022-09-03T21:50:17.038Z,98828.16
2022-09-03T21:53:18.516Z,98827.09
2022-09-03T21:56:21.793Z,98816.22
2022-09-03T21:59:45.127Z,98815.94
2022-09-03T22:02:33.445Z,98801.41
2022-09-03T22:05:20.513Z,98779.84
2022-09-03T22:08:31.876Z,98782.47
2022-09-03T22:11:46.849Z,98791.16
2022-09-03T22:14:43.665Z,98784.25
2022-09-03T22:17:57.065Z,98803.03
2022-09-03T22:20:52.922Z,98754.75
2022-09-03T22:24:14.933Z,98795.69
2022-09-03T22:27:08.389Z,98823.56
2022-09-03T22:30:08.649Z,98800.09
2022-09-03T22:33:34.528Z,98802.31
2022-09-03T22:36:31.170Z,98679.88
2022-09-03T22:39:25.514Z,98786.16
2022-09-03T22:42:29.124Z,98795.69
2022-09-03T22:45:26.646Z,98788.38
2022-09-03T22:48:35.438Z,98783.09
2022-09-03T22:51:21.961Z,98752.13
2022-09-03T22:54:23.452Z,98746.88
2022-09-03T22:57:10.916Z,98738.22
2022-09-03T23:00:09.777Z,98750.38
2022-09-03T23:03:03.643Z,98610.72
2022-09-03T23:06:04.640Z,98647.97
2022-09-03T23:09:02.832Z,98666.78
2022-09-03T23:12:15.229Z,98666.47
2022-09-03T23:15:06.521Z,98700.06
2022-09-03T23:18:06.770Z,98786.75
2022-09-03T23:21:06.059Z,98762.53
2022-09-03T23:24:03.880Z,98665.97
2022-09-03T23:26:53.520Z,98635.47
2022-09-03T23:29:53.741Z,98799.81
2022-09-03T23:32:39.758Z,98827.38
2022-09-03T23:35:34.478Z,98804.22
2022-09-03T23:38:36.413Z,98786.03
2022-09-03T23:41:36.250Z,98647.19
2022-09-03T23:44:43.528Z,98771.19
2022-09-03T23:47:41.765Z,98707.34
2022-09-03T23:50:46.372Z,98815.97
2022-09-03T23:53:59.952Z,98776.47
2022-09-03T23:56:57.286Z,98804.50
2022-09-03T23:59:51.669Z,98670.69
